sensor_id;sensor_type;location;lat;lon;timestamp;P1;durP1;ratioP1;P2;durP2;ratioP2
22072;SDS011;11202;50.916;4.698;2022-08-01T00:01:08;2.28;;;1.63;;
22072;SDS011;11202;50.916;4.698;2022-08-01T00:03:34;6.25;;;1.88;;
22072;SDS011;11202;50.916;4.698;2022-08-01T00:05:59;2.92;;;1.83;;
22072;SDS011;11202;50.916;4.698;2022-08-01T00:08:25;5.15;;;1.80;;
22072;SDS011;11202;50.916;4.698;2022-08-01T00:10:50;6.63;;;2.10;;
22072;SDS011;11202;50.916;4.698;2022-08-01T00:13:16;5.45;;;2.10;;
22072;SDS011;11202;50.916;4.698;2022-08-01T00:15:42;3.05;;;1.90;;
22072;SDS011;11202;50.916;4.698;2022-08-01T00:18:10;3.72;;;1.98;;
22072;SDS011;11202;50.916;4.698;2022-08-01T00:20:36;6.03;;;2.03;;
22072;SDS011;11202;50.916;4.698;2022-08-01T00:23:02;6.63;;;2.00;;
22072;SDS011;11202;50.916;4.698;2022-08-01T00:25:28;4.43;;;2.70;;
22072;SDS011;11202;50.916;4.698;2022-08-01T00:27:54;6.57;;;2.40;;
22072;SDS011;11202;50.916;4.698;2022-08-01T00:30:22;6.35;;;2.50;;
22072;SDS011;11202;50.916;4.698;2022-08-01T00:32:48;6.65;;;2.60;;
22072;SDS011;11202;50.916;4.698;2022-08-01T00:35:14;4.70;;;2.40;;
22072;SDS011;11202;50.916;4.698;2022-08-01T00:37:40;6.32;;;2.90;;
22072;SDS011;11202;50.916;4.698;2022-08-01T00:40:06;8.02;;;2.85;;
22072;SDS011;11202;50.916;4.698;2022-08-01T00:42:35;6.90;;;3.22;;
22072;SDS011;11202;50.916;4.698;2022-08-01T00:45:00;7.32;;;2.97;;
22072;SDS011;11202;50.916;4.698;2022-08-01T00:47:26;8.20;;;3.30;;
22072;SDS011;11202;50.916;4.698;2022-08-01T00:49:54;7.68;;;3.63;;
22072;SDS011;11202;50.916;4.698;2022-08-01T00:52:22;7.85;;;3.80;;
22072;SDS011;11202;50.916;4.698;2022-08-01T00:54:47;6.63;;;3.70;;
22072;SDS011;11202;50.916;4.698;2022-08-01T00:57:13;9.35;;;4.32;;
22072;SDS011;11202;50.916;4.698;2022-08-01T00:59:39;12.85;;;4.07;;
22072;SDS011;11202;50.916;4.698;2022-08-01T01:02:08;7.93;;;4.15;;
22072;SDS011;11202;50.916;4.698;2022-08-01T01:04:35;8.38;;;4.28;;
22072;SDS011;11202;50.916;4.698;2022-08-01T01:09:56;9.75;;;4.20;;
22072;SDS011;11202;50.916;4.698;2022-08-01T01:12:47;8.77;;;4.30;;
22072;SDS011;11202;50.916;4.698;2022-08-01T01:15:40;8.98;;;4.47;;
22072;SDS011;11202;50.916;4.698;2022-08-01T01:18:11;9.52;;;4.25;;
22072;SDS011;11202;50.916;4.698;2022-08-01T01:20:50;7.78;;;4.13;;
22072;SDS011;11202;50.916;4.698;2022-08-01T01:23:34;10.75;;;4.65;;
22072;SDS011;11202;50.916;4.698;2022-08-01T01:26:21;6.85;;;4.50;;
22072;SDS011;11202;50.916;4.698;2022-08-01T01:31:50;9.95;;;4.70;;
22072;SDS011;11202;50.916;4.698;2022-08-01T01:34:19;11.35;;;4.93;;
22072;SDS011;11202;50.916;4.698;2022-08-01T01:36:47;11.15;;;4.85;;
22072;SDS011;11202;50.916;4.698;2022-08-01T01:39:17;8.00;;;4.47;;
22072;SDS011;11202;50.916;4.698;2022-08-01T01:41:46;8.68;;;5.00;;
22072;SDS011;11202;50.916;4.698;2022-08-01T01:44:13;8.85;;;4.43;;
22072;SDS011;11202;50.916;4.698;2022-08-01T01:46:41;12.23;;;4.75;;
22072;SDS011;11202;50.916;4.698;2022-08-01T01:49:08;7.63;;;4.65;;
22072;SDS011;11202;50.916;4.698;2022-08-01T01:51:35;9.10;;;4.18;;
